Time;durP1;ratioP1;P1;durP2;ratioP2;P2;SDS_P1;SDS_P2;PMS_P1;PMS_P2;Temp;Humidity;BMP_temperature;BMP_pressure;BME280_temperature;BME280_humidity;BME280_pressure;Samples;Min_cycle;Max_cycle;Signal;HPM_P1;HPM_P2
2021/01/29 00:01:00;;;;;;;44.47;39.97;;;24.90;49.00;;;;;;5061156;28;20035;-69
2021/01/29 00:03:28;;;;;;;43.88;39.30;;;24.90;49.00;;;;;;5074841;28;20032;-70
2021/01/29 00:05:58;;;;;;;41.83;37.50;;;24.90;49.10;;;;;;5041554;28;20078;-70
2021/01/29 00:08:25;;;;;;;39.95;35.70;;;24.90;49.10;;;;;;5062313;28;20398;-70
2021/01/29 00:10:52;;;;;;;39.55;35.50;;;24.90;49.10;;;;;;5074975;28;20036;-71
2021/01/29 00:13:19;;;;;;;36.33;32.42;;;24.90;49.10;;;;;;5074322;28;20025;-69
2021/01/29 00:15:45;;;;;;;34.60;30.95;;;24.90;49.00;;;;;;5056786;28;20371;-70
2021/01/29 00:18:12;;;;;;;34.53;30.88;;;24.90;49.60;;;;;;5055277;28;20033;-70
2021/01/29 00:20:39;;;;;;;34.33;30.63;;;24.90;49.10;;;;;;5074231;28;20032;-69
2021/01/29 00:23:05;;;;;;;31.48;28.30;;;24.90;49.10;;;;;;5074253;28;20087;-70
2021/01/29 00:25:37;;;;;;;32.85;29.55;;;24.90;49.10;;;;;;5074225;28;20040;-70
2021/01/29 00:28:04;;;;;;;29.95;26.85;;;24.90;49.20;;;;;;5056531;28;20075;-70
2021/01/29 00:30:30;;;;;;;27.67;24.85;;;24.90;49.10;;;;;;5074204;28;20016;-70
2021/01/29 00:32:57;;;;;;;27.75;24.85;;;24.80;49.00;;;;;;5074329;28;20024;-70
2021/01/29 00:35:26;;;;;;;26.35;23.73;;;24.80;49.00;;;;;;5073823;28;20039;-70
2021/01/29 00:37:53;;;;;;;26.83;23.77;;;24.80;49.10;;;;;;5036244;28;20033;-69
2021/01/29 00:40:19;;;;;;;26.15;23.42;;;24.80;49.00;;;;;;5071106;28;20029;-69
2021/01/29 00:42:46;;;;;;;23.70;21.30;;;24.80;49.10;;;;;;5056354;28;20028;-69
2021/01/29 00:45:14;;;;;;;22.95;20.75;;;24.80;49.00;;;;;;5052791;28;20087;-69
2021/01/29 00:47:40;;;;;;;23.80;21.38;;;24.80;49.00;;;;;;5053156;28;20028;-70
2021/01/29 00:50:08;;;;;;;21.60;19.48;;;24.80;49.00;;;;;;5069686;28;20167;-70
2021/01/29 00:52:34;;;;;;;21.95;19.67;;;24.80;49.00;;;;;;5073822;28;20025;-69
2021/01/29 00:55:00;;;;;;;21.33;18.98;;;24.80;49.00;;;;;;5039032;28;20024;-69
2021/01/29 00:57:27;;;;;;;20.05;17.90;;;24.80;49.00;;;;;;5065411;28;20025;-68
2021/01/29 01:00:15;;;;;;;18.15;16.33;;;24.80;49.00;;;;;;5073355;28;20041;-69
2021/01/29 01:02:47;;;;;;;17.38;15.40;;;24.80;49.00;;;;;;5052358;28;20028;-70
2021/01/29 01:05:15;;;;;;;15.80;14.20;;;24.80;49.00;;;;;;5068993;28;20028;-69
2021/01/29 01:07:41;;;;;;;16.27;14.52;;;24.80;48.90;;;;;;5063732;28;20025;-69
2021/01/29 01:10:46;;;;;;;14.95;13.50;;;24.80;49.00;;;;;;4992691;28;20089;-69
2021/01/29 01:13:41;;;;;;;15.77;13.68;;;24.70;48.90;;;;;;4974925;28;20047;-69
2021/01/29 01:16:43;;;;;;;13.70;12.18;;;24.80;48.90;;;;;;4992354;28;20038;-70
2021/01/29 01:19:30;;;;;;;13.73;12.27;;;24.80;48.80;;;;;;4991446;28;20535;-69
2021/01/29 01:22:05;;;;;;;13.73;12.30;;;24.70;48.80;;;;;;4992204;28;20045;-70
2021/01/29 01:24:49;;;;;;;14.15;12.68;;;24.70;48.80;;;;;;4990991;28;20030;-69
2021/01/29 01:27:18;;;;;;;13.27;11.20;;;24.70;48.90;;;;;;4975864;28;20122;-69
2021/01/29 01:30:10;;;;;;;12.73;11.43;;;24.70;48.80;;;;;;4991289;28;20046;-70
2021/01/29 01:32:39;;;;;;;12.75;11.25;;;24.70;48.80;;;;;;4991845;28;20118;-69
2021/01/29 01:35:31;;;;;;;11.90;10.70;;;24.70;48.80;;;;;;4989586;28;20046;-69
2021/01/29 01:37:57;;;;;;;10.95;9.85;;;24.70;48.90;;;;;;4992122;28;20130;-70
2021/01/29 01:40:41;;;;;;;11.88;10.73;;;24.70;48.80;;;;;;4984666;28;20128;-69
2021/01/29 01:43:11;;;;;;;10.80;9.70;;;24.60;49.40;;;;;;5051792;28;20025;-69
2021/01/29 01:45:54;;;;;;;;;;;24.70;48.80;;;;;;5049665;28;20410;-69
2021/01/29 01:48:32;;;;;;;9.50;8.50;;;24.60;48.90;;;;;;5074171;28;19930;-70
2021/01/29 01:51:31;;;;;;;11.75;9.57;;;24.70;48.60;;;;;;5036966;28;20144;-69
2021/01/29 01:53:59;;;;;;;10.32;8.90;;;24.70;48.70;;;;;;5047678;28;20040;-69
2021/01/29 01:56:37;;;;;;;12.05;9.05;;;24.60;48.70;;;;;;5048472;28;20034;-69
2021/01/29 01:59:27;;;;;;;10.13;9.18;;;24.60;48.70;;;;;;5048362;28;20044;-69
2021/01/29 02:02:22;;;;;;;9.63;8.63;;;24.60;48.70;;;;;;5052354;28;20056;-68
2021/01/29 02:05:30;;;;;;;11.60;9.20;;;24.60;48.70;;;;;;5033247;28;20037;-68
2021/01/29 02:08:16;;;;;;;10.63;8.77;;;24.60;48.80;;;;;;5052226;28;20051;-68
2021/01/29 02:11:01;;;;;;;8.73;7.80;;;24.60;48.80;;;;;;5052995;28;20121;-67
2021/01/29 02:13:40;;;;;;;13.50;8.43;;;24.60;48.80;;;;;;5035862;28;20033;-68
2021/01/29 02:16:47;;;;;;;11.45;8.52;;;24.50;48.70;;;;;;5048579;28;20091;-68
2021/01/29 02:19:46;;;;;;;12.00;9.13;;;24.50;48.80;;;;;;5055621;28;20036;-69
2021/01/29 02:22:12;;;;;;;9.40;8.18;;;24.50;48.80;;;;;;5035054;28;20037;-67
2021/01/29 02:25:29;;;;;;;9.82;8.00;;;24.50;48.70;;;;;;5056065;28;20494;-69
2021/01/29 02:28:13;;;;;;;8.63;7.60;;;24.50;48.80;;;;;;5055102;28;20097;-69
2021/01/29 02:31:20;;;;;;;7.65;6.85;;;24.60;48.80;;;;;;5055517;28;20021;-68
2021/01/29 02:34:03;;;;;;;8.30;7.40;;;24.50;48.70;;;;;;5056466;28;20021;-68
2021/01/29 02:37:01;;;;;;;7.93;7.13;;;24.50;48.70;;;;;;5054974;28;20031;-68
2021/01/29 02:39:27;;;;;;;8.13;7.00;;;24.50;48.70;;;;;;5055148;28;20025;-69
2021/01/29 02:42:30;;;;;;;7.15;6.28;;;24.50;48.70;;;;;;5056693;28;20021;-69
2021/01/29 02:45:25;;;;;;;9.55;6.97;;;24.50;49.30;;;;;;5051541;28;20416;-68
2021/01/29 02:48:57;;;;;;;7.70;6.40;;;24.50;48.70;;;;;;5043460;28;20347;-69
2021/01/29 02:51:38;;;;;;;6.38;5.70;;;24.50;48.60;;;;;;5070303;28;20082;-69
2021/01/29 02:54:39;;;;;;;6.85;6.10;;;24.50;48.60;;;;;;5052011;28;20430;-69
2021/01/29 02:57:38;;;;;;;8.57;6.80;;;24.50;48.60;;;;;;5057427;28;20508;-68
2021/01/29 03:00:48;;;;;;;7.97;5.50;;;24.50;48.60;;;;;;5032908;28;20368;-68
2021/01/29 03:03:44;;;;;;;6.70;5.45;;;24.50;48.60;;;;;;5042205;28;20025;-68
2021/01/29 03:06:45;;;;;;;6.63;5.93;;;24.50;48.50;;;;;;5027732;28;20129;-68
2021/01/29 03:09:15;;;;;;;6.53;5.85;;;24.50;48.40;;;;;;5046013;28;20538;-68
2021/01/29 03:12:29;;;;;;;6.35;5.75;;;24.50;48.50;;;;;;5064145;28;20039;-68
2021/01/29 03:15:24;;;;;;;6.78;5.57;;;24.40;48.40;;;;;;5060244;28;20074;-68
2021/01/29 03:18:25;;;;;;;6.65;5.30;;;24.40;48.30;;;;;;5075563;28;20036;-68
2021/01/29 03:21:19;;;;;;;6.20;4.90;;;24.40;48.30;;;;;;5076201;28;20501;-68
2021/01/29 03:24:36;;;;;;;5.30;4.80;;;24.40;48.40;;;;;;5074626;28;20035;-68
2021/01/29 03:27:25;;;;;;;7.90;5.50;;;24.40;48.40;;;;;;5075415;28;20031;-68
2021/01/29 03:30:17;;;;;;;6.55;4.93;;;24.30;48.40;;;;;;5075411;28;20075;-69
2021/01/29 03:33:02;;;;;;;6.13;5.13;;;24.30;48.40;;;;;;5060568;28;20063;-69
2021/01/29 03:36:00;;;;;;;7.07;4.50;;;24.30;48.30;;;;;;5075402;28;20547;-69
2021/01/29 03:38:52;;;;;;;5.82;5.10;;;24.30;48.20;;;;;;5055780;28;20044;-68
2021/01/29 03:41:41;;;;;;;5.05;4.53;;;24.30;48.30;;;;;;5066242;28;20617;-68
2021/01/29 03:44:45;;;;;;;4.70;4.30;;;24.30;48.20;;;;;;5052025;28;20053;-67
2021/01/29 03:47:36;;;;;;;4.90;4.40;;;24.30;48.20;;;;;;5075115;28;20171;-68
2021/01/29 03:50:28;;;;;;;4.80;4.30;;;24.30;48.00;;;;;;5074908;28;20113;-68
2021/01/29 03:53:24;;;;;;;4.93;4.38;;;24.30;48.10;;;;;;5075241;28;20118;-68
2021/01/29 03:56:38;;;;;;;4.57;4.10;;;24.20;48.10;;;;;;5064753;28;20150;-68
2021/01/29 03:59:28;;;;;;;7.07;5.15;;;24.20;48.20;;;;;;5055164;28;20048;-68
2021/01/29 04:02:44;;;;;;;5.78;4.43;;;24.20;48.20;;;;;;5046064;28;20032;-68
2021/01/29 04:05:42;;;;;;;5.50;4.75;;;24.20;48.30;;;;;;5038322;28;20086;-67
2021/01/29 04:08:39;;;;;;;4.80;4.28;;;24.20;48.20;;;;;;5072306;28;20040;-68
2021/01/29 04:11:31;;;;;;;5.68;4.15;;;24.20;48.20;;;;;;5056821;28;20043;-68
2021/01/29 04:14:20;;;;;;;10.52;4.55;;;24.20;48.20;;;;;;5056700;28;20036;-68
2021/01/29 04:16:50;;;;;;;6.45;4.28;;;24.20;48.20;;;;;;5074623;28;20111;-68
2021/01/29 04:19:21;;;;;;;4.75;4.15;;;24.20;48.20;;;;;;5054350;28;20036;-68
2021/01/29 04:21:56;;;;;;;5.15;4.18;;;24.20;48.20;;;;;;5056693;28;20031;-69
2021/01/29 04:24:27;;;;;;;5.22;4.35;;;24.20;48.20;;;;;;5054556;28;20078;-68
2021/01/29 04:27:09;;;;;;;5.07;4.45;;;24.20;48.20;;;;;;5036661;28;20040;-68
2021/01/29 04:29:40;;;;;;;6.38;4.28;;;24.20;48.20;;;;;;5061800;28;20071;-68
2021/01/29 04:32:13;;;;;;;5.78;4.38;;;24.20;48.20;;;;;;5073758;28;20059;-67
2021/01/29 04:34:43;;;;;;;5.40;4.70;;;24.20;48.20;;;;;;5063819;28;20102;-68
2021/01/29 04:37:25;;;;;;;4.93;3.97;;;24.20;48.20;;;;;;5073564;28;20029;-68
2021/01/29 04:39:56;;;;;;;4.60;4.20;;;24.20;48.20;;;;;;5056042;28;20429;-68
2021/01/29 04:42:53;;;;;;;4.82;4.22;;;24.20;48.10;;;;;;5074409;28;20082;-68
2021/01/29 04:45:46;;;;;;;5.18;4.68;;;24.20;48.10;;;;;;5073891;28;20028;-67
2021/01/29 04:48:51;;;;;;;5.50;3.92;;;24.20;48.00;;;;;;5036165;28;20041;-67
2021/01/29 04:52:01;;;;;;;5.70;4.40;;;24.10;48.00;;;;;;5040912;28;20451;-67
2021/01/29 04:54:39;;;;;;;5.93;4.80;;;24.10;48.00;;;;;;5029057;28;20124;-68
2021/01/29 04:57:31;;;;;;;5.40;4.32;;;24.20;48.00;;;;;;5073858;28;20027;-67
2021/01/29 05:00:33;;;;;;;4.88;4.15;;;24.10;48.00;;;;;;5073888;28;20034;-68
2021/01/29 05:03:50;;;;;;;7.72;4.20;;;24.20;48.20;;;;;;5065909;28;20501;-68
2021/01/29 05:07:03;;;;;;;5.45;4.07;;;24.10;47.90;;;;;;5058726;28;20032;-67
2021/01/29 05:10:20;;;;;;;4.82;3.80;;;24.10;48.00;;;;;;5057452;28;20058;-67
2021/01/29 05:13:11;;;;;;;4.63;4.05;;;24.20;48.00;;;;;;5055807;28;20028;-68
2021/01/29 05:15:55;;;;;;;4.38;3.97;;;24.10;47.90;;;;;;5055644;28;20497;-67
2021/01/29 05:18:46;;;;;;;4.70;4.20;;;24.10;47.90;;;;;;5073900;28;20562;-68
2021/01/29 05:21:41;;;;;;;4.88;4.20;;;24.20;47.90;;;;;;5055379;28;20029;-67
2021/01/29 05:24:13;;;;;;;4.43;4.00;;;24.10;47.90;;;;;;5055451;28;20033;-68
2021/01/29 05:26:58;;;;;;;6.38;3.92;;;24.10;47.70;;;;;;5073307;28;20497;-68
2021/01/29 05:29:26;;;;;;;5.53;4.03;;;24.10;47.80;;;;;;5055099;28;20029;-68
2021/01/29 05:32:01;;;;;;;5.57;4.28;;;24.10;47.80;;;;;;5072067;28;20024;-69
2021/01/29 05:35:05;;;;;;;5.43;4.13;;;24.10;47.80;;;;;;5055350;28;20036;-68
2021/01/29 05:37:49;;;;;;;4.25;3.38;;;24.00;47.90;;;;;;5055422;28;20085;-68
2021/01/29 05:40:50;;;;;;;5.70;3.63;;;24.00;47.90;;;;;;5035788;28;20084;-67
2021/01/29 05:43:40;;;;;;;5.22;4.40;;;24.00;47.80;;;;;;5071211;28;20085;-68
2021/01/29 05:46:09;;;;;;;5.85;4.38;;;24.10;47.90;;;;;;5072203;28;20024;-68
2021/01/29 05:48:59;;;;;;;5.55;4.45;;;24.10;47.90;;;;;;5073218;28;20028;-68
2021/01/29 05:51:45;;;;;;;5.18;4.28;;;24.00;47.80;;;;;;5072939;28;20051;-69
2021/01/29 05:54:36;;;;;;;6.93;4.50;;;24.00;47.70;;;;;;5055139;28;20039;-68
2021/01/29 05:57:26;;;;;;;4.47;4.05;;;24.00;47.60;;;;;;5073452;28;20078;-68
2021/01/29 06:00:21;;;;;;;4.85;3.95;;;24.00;47.70;;;;;;5072744;28;20028;-68
2021/01/29 06:03:14;;;;;;;6.18;4.13;;;24.00;47.70;;;;;;5072530;28;20112;-68
2021/01/29 06:06:28;;;;;;;6.13;4.78;;;24.00;47.70;;;;;;5072698;28;20028;-69
2021/01/29 06:09:17;;;;;;;6.22;4.72;;;24.00;47.80;;;;;;5072549;28;20036;-68
2021/01/29 06:12:01;;;;;;;5.28;4.57;;;24.00;47.80;;;;;;5072995;28;20028;-67
2021/01/29 06:14:52;;;;;;;4.60;3.97;;;24.00;47.90;;;;;;5072725;28;20486;-68
2021/01/29 06:17:20;;;;;;;5.85;4.53;;;24.00;47.80;;;;;;5053720;28;20541;-68
2021/01/29 06:20:03;;;;;;;4.97;4.47;;;24.00;47.80;;;;;;5072834;28;20037;-68
2021/01/29 06:23:07;;;;;;;6.07;4.47;;;24.00;47.80;;;;;;5073255;28;20029;-68
2021/01/29 06:26:14;;;;;;;4.90;3.95;;;24.00;47.90;;;;;;5054013;28;20171;-68
2021/01/29 06:29:00;;;;;;;6.80;4.60;;;24.00;47.90;;;;;;4980061;28;20065;-69
2021/01/29 06:31:44;;;;;;;5.75;4.45;;;24.00;47.80;;;;;;4982123;28;20046;-69
2021/01/29 06:34:42;;;;;;;5.20;4.38;;;24.00;47.80;;;;;;4969082;28;20045;-69
2021/01/29 06:37:18;;;;;;;5.38;4.30;;;24.00;48.50;;;;;;4967539;28;20042;-69
2021/01/29 06:40:25;;;;;;;5.95;3.53;;;24.00;47.90;;;;;;4975532;28;20045;-68
2021/01/29 06:43:03;;;;;;;4.65;4.20;;;24.00;47.90;;;;;;4949141;28;20128;-69
2021/01/29 06:46:06;;;;;;;4.85;4.18;;;24.00;47.80;;;;;;4977721;28;20043;-68
2021/01/29 06:48:43;;;;;;;4.72;4.25;;;23.90;47.70;;;;;;4966306;28;20030;-68
2021/01/29 06:51:38;;;;;;;6.70;4.22;;;24.00;47.70;;;;;;4990937;28;20202;-68
2021/01/29 06:54:27;;;;;;;6.78;4.93;;;23.90;47.80;;;;;;4960223;28;20051;-68
2021/01/29 06:57:08;;;;;;;5.90;4.50;;;23.90;47.70;;;;;;4973975;28;20046;-68
2021/01/29 07:00:15;;;;;;;5.20;4.05;;;23.90;47.70;;;;;;4975581;28;20496;-69
2021/01/29 07:02:55;;;;;;;7.40;6.00;;;23.90;47.70;;;;;;5012473;28;20049;-68
2021/01/29 07:05:21;;;;;;;7.57;5.55;;;23.90;47.70;;;;;;5054725;28;20517;-68
2021/01/29 07:08:22;;;;;;;13.18;9.88;;;23.90;47.60;;;;;;5053709;28;20029;-68
2021/01/29 07:11:06;;;;;;;;;;;23.90;47.60;;;;;;5054159;28;20040;-66
2021/01/29 07:13:57;;;;;;;16.05;14.38;;;23.90;47.80;;;;;;5052676;28;19963;-66
2021/01/29 07:16:34;;;;;;;;;;;24.00;47.40;;;;;;5054453;28;20406;-66
2021/01/29 07:19:21;;;;;;;20.13;18.02;;;23.90;47.70;;;;;;5054420;28;19913;-66
2021/01/29 07:22:18;;;;;;;18.45;16.50;;;23.90;47.70;;;;;;5053161;28;20025;-65
2021/01/29 07:25:19;;;;;;;19.15;16.88;;;23.90;47.40;;;;;;5051632;28;20025;-62
2021/01/29 07:28:17;;;;;;;20.10;18.08;;;23.90;47.20;;;;;;5014827;28;20080;-63
2021/01/29 07:31:12;;;;;;;16.25;14.63;;;23.80;46.50;;;;;;5025147;28;20106;-65
2021/01/29 07:33:59;;;;;;;14.90;11.07;;;23.70;46.20;;;;;;5034186;28;20029;-64
2021/01/29 07:36:55;;;;;;;16.90;10.70;;;23.60;45.90;;;;;;5033814;28;20033;-64
2021/01/29 07:39:27;;;;;;;9.63;8.57;;;23.50;45.90;;;;;;5034048;28;20360;-63
2021/01/29 07:42:08;;;;;;;11.63;7.38;;;23.40;45.80;;;;;;5033964;28;20120;-65
2021/01/29 07:45:00;;;;;;;9.25;7.07;;;23.30;45.80;;;;;;5041201;28;20033;-63
2021/01/29 07:47:53;;;;;;;12.38;7.80;;;23.20;46.10;;;;;;5052397;28;20383;-63
2021/01/29 07:50:46;;;;;;;9.23;7.18;;;23.10;46.20;;;;;;5038384;28;20128;-63
2021/01/29 07:53:29;;;;;;;7.75;6.47;;;23.00;46.30;;;;;;5063378;28;20490;-63
2021/01/29 07:56:20;;;;;;;15.13;8.60;;;22.80;46.30;;;;;;5038988;28;20032;-63
2021/01/29 07:58:54;;;;;;;10.25;7.78;;;22.80;46.70;;;;;;5055799;28;20028;-63
2021/01/29 08:01:48;;;;;;;11.23;7.80;;;22.80;46.80;;;;;;5073487;28;20052;-63
2021/01/29 08:04:52;;;;;;;10.32;7.55;;;22.70;46.80;;;;;;5055391;28;20032;-63
2021/01/29 08:07:25;;;;;;;12.85;7.90;;;22.70;47.00;;;;;;5073523;28;20070;-62
2021/01/29 08:09:58;;;;;;;13.27;7.35;;;22.60;47.00;;;;;;5072827;28;20086;-62
2021/01/29 08:12:25;;;;;;;10.70;7.78;;;22.60;47.20;;;;;;5055771;28;20029;-61
2021/01/29 08:15:19;;;;;;;12.98;7.43;;;22.50;47.30;;;;;;5073510;28;20020;-61
2021/01/29 08:18:03;;;;;;;12.80;7.22;;;22.50;47.70;;;;;;5055448;28;20396;-62
2021/01/29 08:20:51;;;;;;;9.65;7.07;;;22.50;47.70;;;;;;5073694;28;20025;-58
2021/01/29 08:23:38;;;;;;;9.35;6.55;;;22.40;47.70;;;;;;5074090;28;20385;-59
2021/01/29 08:26:26;;;;;;;9.68;6.63;;;22.40;48.00;;;;;;5055827;28;20043;-57
2021/01/29 08:29:18;;;;;;;12.93;7.28;;;22.30;48.00;;;;;;5073401;28;20028;-58
2021/01/29 08:32:40;;;;;;;13.75;6.85;;;22.30;48.10;;;;;;5041651;28;20033;-58
2021/01/29 08:35:38;;;;;;;9.20;5.40;;;22.40;48.20;;;;;;5055832;28;20031;-61
2021/01/29 08:38:29;;;;;;;10.43;6.05;;;22.40;48.30;;;;;;5055795;28;20032;-59
2021/01/29 08:41:26;;;;;;;7.90;5.72;;;22.40;48.40;;;;;;5073770;28;20103;-58
2021/01/29 08:44:06;;;;;;;7.03;5.22;;;22.40;48.20;;;;;;5073744;28;20111;-58
2021/01/29 08:46:50;;;;;;;14.55;9.98;;;22.40;48.10;;;;;;5044556;28;20075;-59
2021/01/29 08:49:35;;;;;;;15.43;9.23;;;22.50;47.90;;;;;;5070751;28;20112;-59
2021/01/29 08:52:33;;;;;;;17.05;14.52;;;22.50;47.90;;;;;;5070713;28;20068;-58
2021/01/29 08:55:14;;;;;;;13.32;11.10;;;22.50;47.90;;;;;;4992685;28;20081;-58
2021/01/29 08:57:40;;;;;;;;;;;22.60;47.70;;;;;;4992991;28;20485;-58
2021/01/29 09:00:10;;;;;;;8.70;7.03;;;22.60;47.90;;;;;;4992103;28;19960;-59
2021/01/29 09:02:51;;;;;;;14.50;7.15;;;22.70;47.40;;;;;;4990065;28;20038;-59
2021/01/29 09:05:24;;;;;;;13.68;7.82;;;22.70;47.50;;;;;;4975813;28;20045;-60
2021/01/29 09:08:01;;;;;;;11.48;8.20;;;22.70;47.40;;;;;;4976084;28;20034;-59
2021/01/29 09:10:41;;;;;;;21.90;16.13;;;22.70;47.50;;;;;;4976153;28;20484;-60
2021/01/29 09:13:16;;;;;;;27.45;22.77;;;22.70;47.30;;;;;;4990766;28;20038;-57
2021/01/29 09:16:09;;;;;;;38.00;33.53;;;22.80;47.30;;;;;;4974269;28;20125;-53
2021/01/29 09:18:55;;;;;;;27.00;20.30;;;22.80;47.30;;;;;;4990280;28;20077;-54
2021/01/29 09:21:46;;;;;;;16.80;12.80;;;22.80;47.00;;;;;;4990325;28;20117;-55
2021/01/29 09:24:21;;;;;;;11.45;8.30;;;22.90;47.00;;;;;;4980138;28;20072;-57
2021/01/29 09:27:05;;;;;;;12.10;6.03;;;22.90;46.80;;;;;;4990545;28;20046;-56
2021/01/29 09:29:42;;;;;;;8.30;5.57;;;23.00;46.80;;;;;;4996075;28;20579;-56
2021/01/29 09:32:12;;;;;;;6.00;5.40;;;23.00;46.60;;;;;;5071909;28;20021;-57
2021/01/29 09:34:47;;;;;;;5.15;4.38;;;23.10;46.60;;;;;;5071869;28;20052;-56
2021/01/29 09:37:19;;;;;;;31.48;25.33;;;23.10;46.50;;;;;;5071518;28;20401;-56
2021/01/29 09:39:54;;;;;;;57.75;49.33;;;23.10;46.40;;;;;;5071814;28;20112;-57
2021/01/29 09:42:33;;;;;;;46.90;36.67;;;23.10;46.40;;;;;;5070928;28;20377;-56
2021/01/29 09:45:03;;;;;;;20.35;16.45;;;23.20;46.40;;;;;;5071747;28;20106;-56
2021/01/29 09:47:39;;;;;;;;;;;23.20;46.20;;;;;;5071300;28;20394;-56
2021/01/29 09:50:10;;;;;;;19.70;13.38;;;23.20;46.60;;;;;;5070594;28;19913;-56
2021/01/29 09:52:55;;;;;;;16.13;12.10;;;23.30;46.20;;;;;;5070864;28;20099;-56
2021/01/29 09:55:27;;;;;;;13.18;8.38;;;23.40;46.20;;;;;;5050559;28;20070;-56
2021/01/29 09:58:24;;;;;;;8.23;7.40;;;23.40;46.10;;;;;;5052531;28;20405;-56
2021/01/29 10:01:12;;;;;;;11.00;7.50;;;23.40;46.20;;;;;;5060662;28;20508;-56
2021/01/29 10:03:56;;;;;;;9.80;6.65;;;23.40;46.50;;;;;;5070711;28;20032;-56
2021/01/29 10:06:28;;;;;;;9.05;6.15;;;23.50;46.00;;;;;;5033154;28;20033;-57
2021/01/29 10:09:02;;;;;;;12.73;6.43;;;23.60;46.20;;;;;;5032667;28;20045;-57
2021/01/29 10:11:47;;;;;;;7.03;5.72;;;23.60;46.30;;;;;;5051760;28;20126;-57
2021/01/29 10:14:20;;;;;;;10.10;7.90;;;23.60;46.30;;;;;;5033202;28;20044;-56
2021/01/29 10:17:01;;;;;;;10.18;7.80;;;23.60;46.20;;;;;;5051561;28;20021;-57
2021/01/29 10:19:32;;;;;;;8.52;6.38;;;23.60;46.20;;;;;;5033279;28;20398;-57
2021/01/29 10:21:58;;;;;;;10.45;5.68;;;23.70;46.20;;;;;;5051088;28;20029;-56
2021/01/29 10:24:45;;;;;;;7.93;5.20;;;23.70;46.30;;;;;;5037176;28;20031;-56
2021/01/29 10:27:20;;;;;;;7.03;5.38;;;23.70;46.40;;;;;;5065493;28;20052;-55
2021/01/29 10:29:55;;;;;;;24.17;6.55;;;23.80;46.40;;;;;;5050530;28;20025;-56
2021/01/29 10:32:25;;;;;;;6.60;5.78;;;23.90;46.50;;;;;;5068841;28;20032;-54
2021/01/29 10:35:03;;;;;;;7.18;5.90;;;23.90;46.30;;;;;;5054456;28;20107;-54
2021/01/29 10:37:54;;;;;;;10.02;6.15;;;24.00;46.30;;;;;;5068990;28;20430;-61
2021/01/29 10:40:34;;;;;;;9.07;5.80;;;24.00;46.30;;;;;;5072052;28;20028;-64
2021/01/29 10:43:05;;;;;;;9.13;6.00;;;24.10;46.40;;;;;;5072520;28;20090;-60
2021/01/29 10:46:02;;;;;;;8.68;6.75;;;24.20;46.40;;;;;;5055318;28;20067;-59
2021/01/29 10:48:50;;;;;;;10.52;6.60;;;24.30;46.30;;;;;;5054738;28;20123;-61
2021/01/29 10:51:47;;;;;;;9.27;6.15;;;24.40;46.30;;;;;;5071980;28;20106;-61
2021/01/29 10:54:14;;;;;;;8.38;5.97;;;24.40;46.40;;;;;;5036582;28;20024;-62
2021/01/29 10:56:58;;;;;;;8.23;5.75;;;24.50;46.40;;;;;;5031206;28;20390;-59
2021/01/29 10:59:37;;;;;;;8.05;5.57;;;24.60;46.40;;;;;;5070809;28;20044;-61
2021/01/29 11:02:11;;;;;;;11.05;6.45;;;24.70;46.50;;;;;;5051494;28;20036;-61
2021/01/29 11:04:45;;;;;;;11.88;10.38;;;24.80;46.40;;;;;;5070092;28;20032;-60
2021/01/29 11:07:20;;;;;;;13.45;5.85;;;24.90;46.70;;;;;;5073589;28;20062;-62
2021/01/29 11:10:14;;;;;;;7.53;4.07;;;24.90;48.00;;;;;;5072572;28;20029;-60
2021/01/29 11:12:57;;;;;;;9.55;4.95;;;25.00;48.30;;;;;;5042670;28;20090;-61
2021/01/29 11:15:35;;;;;;;7.93;4.40;;;25.20;48.70;;;;;;5075491;28;20025;-61
2021/01/29 11:18:19;;;;;;;7.18;4.53;;;25.60;48.70;;;;;;5075520;28;20099;-61
2021/01/29 11:20:47;;;;;;;6.22;3.97;;;26.10;48.00;;;;;;5074999;28;20382;-61
2021/01/29 11:23:41;;;;;;;10.75;4.03;;;26.70;47.70;;;;;;5056874;28;20028;-62
2021/01/29 11:26:53;;;;;;;7.10;3.72;;;27.30;46.50;;;;;;5074512;28;20150;-59
2021/01/29 11:30:00;;;;;;;10.27;4.38;;;28.00;46.00;;;;;;5073253;28;20031;-55
2021/01/29 11:32:42;;;;;;;6.57;4.50;;;28.70;44.60;;;;;;5007775;28;20044;-54
2021/01/29 11:35:24;;;;;;;8.68;4.15;;;29.00;43.00;;;;;;5072446;28;20023;-55
2021/01/29 11:37:55;;;;;;;11.30;4.45;;;29.10;42.40;;;;;;5073193;28;20028;-55
2021/01/29 11:40:32;;;;;;;13.02;4.03;;;29.10;41.90;;;;;;5073252;28;20033;-55
2021/01/29 11:43:01;;;;;;;8.48;4.03;;;29.00;41.80;;;;;;5072074;28;20021;-55
2021/01/29 11:45:34;;;;;;;6.85;3.90;;;28.90;42.00;;;;;;5073044;28;20037;-55
2021/01/29 11:48:09;;;;;;;9.40;4.20;;;28.70;42.20;;;;;;5072322;28;20040;-55
2021/01/29 11:50:41;;;;;;;5.75;3.95;;;28.50;42.40;;;;;;5051006;28;20048;-55
2021/01/29 11:53:18;;;;;;;11.07;4.65;;;28.30;43.20;;;;;;5051793;28;20025;-55
2021/01/29 11:55:49;;;;;;;6.03;3.92;;;28.20;42.90;;;;;;5050289;28;20051;-55
2021/01/29 11:58:36;;;;;;;5.82;3.97;;;28.00;43.30;;;;;;5052320;28;20066;-55
2021/01/29 12:01:05;;;;;;;7.30;4.70;;;27.90;43.50;;;;;;5050882;28;20041;-54
2021/01/29 12:03:51;;;;;;;11.07;5.60;;;27.70;43.80;;;;;;5052657;28;20021;-55
2021/01/29 12:06:29;;;;;;;6.30;4.45;;;27.60;44.10;;;;;;5051649;28;20379;-55
2021/01/29 12:09:10;;;;;;;6.63;4.60;;;27.50;44.30;;;;;;5052244;28;20101;-55
2021/01/29 12:11:57;;;;;;;6.38;4.30;;;27.30;44.40;;;;;;5052779;28;20091;-55
2021/01/29 12:14:45;;;;;;;7.45;4.22;;;27.20;44.40;;;;;;5051551;28;20065;-55
2021/01/29 12:17:11;;;;;;;6.38;4.20;;;27.20;44.50;;;;;;5051165;28;20024;-55
2021/01/29 12:19:43;;;;;;;6.25;4.55;;;27.20;44.60;;;;;;5052532;28;20143;-55
2021/01/29 12:22:19;;;;;;;7.22;3.72;;;27.10;44.60;;;;;;5052747;28;20035;-55
2021/01/29 12:24:45;;;;;;;10.18;4.82;;;27.00;44.60;;;;;;5051179;28;20056;-55
2021/01/29 12:27:51;;;;;;;12.05;3.53;;;27.00;44.60;;;;;;5052659;28;20037;-54
2021/01/29 12:30:41;;;;;;;7.95;3.83;;;27.00;44.60;;;;;;5047948;28;20123;-55
2021/01/29 12:33:10;;;;;;;7.22;3.72;;;27.00;44.00;;;;;;5052681;28;20039;-55
2021/01/29 12:35:42;;;;;;;5.93;3.55;;;27.00;44.10;;;;;;5034393;28;20539;-55
2021/01/29 12:38:30;;;;;;;11.52;6.80;;;27.00;43.90;;;;;;5052111;28;20112;-56
2021/01/29 12:41:19;;;;;;;13.40;8.73;;;26.90;44.00;;;;;;5050186;28;20021;-56
2021/01/29 12:44:16;;;;;;;10.80;7.57;;;27.00;44.70;;;;;;5051495;28;20029;-56
2021/01/29 12:47:05;;;;;;;11.73;9.23;;;27.00;44.90;;;;;;5053498;28;20030;-57
2021/01/29 12:49:46;;;;;;;13.77;8.27;;;27.00;44.70;;;;;;5067550;28;20037;-58
2021/01/29 12:52:27;;;;;;;9.80;7.85;;;27.00;44.90;;;;;;5034272;28;20033;-56
2021/01/29 12:55:14;;;;;;;15.52;6.80;;;27.00;44.90;;;;;;5068828;28;20097;-57
2021/01/29 12:57:40;;;;;;;16.17;7.10;;;27.10;45.10;;;;;;5070926;28;20115;-57
2021/01/29 13:00:10;;;;;;;9.98;6.75;;;27.10;45.10;;;;;;5071823;28;20024;-57
2021/01/29 13:03:13;;;;;;;16.88;6.60;;;27.10;45.10;;;;;;5069681;28;20385;-57
2021/01/29 13:05:42;;;;;;;19.00;5.75;;;27.10;45.20;;;;;;5053789;28;20119;-57
2021/01/29 13:08:14;;;;;;;15.57;5.72;;;27.20;45.20;;;;;;5054352;28;20133;-56
2021/01/29 13:11:15;;;;;;;10.80;5.88;;;27.20;45.30;;;;;;5037526;28;20028;-57
2021/01/29 13:14:14;;;;;;;15.85;6.53;;;27.20;45.40;;;;;;5039345;28;20051;-57
2021/01/29 13:17:11;;;;;;;21.48;7.53;;;27.30;45.70;;;;;;5052906;28;20028;-57
2021/01/29 13:19:39;;;;;;;9.95;6.07;;;27.40;45.60;;;;;;5071151;28;20028;-57
2021/01/29 13:22:28;;;;;;;20.17;6.32;;;27.40;45.50;;;;;;5053542;28;20105;-57
2021/01/29 13:25:09;;;;;;;10.85;5.57;;;27.50;45.60;;;;;;5053580;28;20103;-57
2021/01/29 13:28:05;;;;;;;13.75;6.22;;;27.50;45.50;;;;;;5071714;28;20119;-58
2021/01/29 13:30:33;;;;;;;9.65;5.50;;;27.50;45.70;;;;;;5071483;28;20060;-58
2021/01/29 13:33:10;;;;;;;13.68;6.35;;;27.60;45.50;;;;;;5071535;28;20017;-57
2021/01/29 13:35:36;;;;;;;11.57;5.40;;;27.60;45.40;;;;;;5071577;28;20031;-57
2021/01/29 13:38:24;;;;;;;9.45;5.13;;;27.70;45.50;;;;;;5053827;28;20024;-57
2021/01/29 13:40:51;;;;;;;13.10;4.70;;;27.70;45.40;;;;;;5053919;28;20040;-57
2021/01/29 13:43:29;;;;;;;11.68;5.10;;;27.80;45.40;;;;;;5036970;28;20135;-59
2021/01/29 13:46:02;;;;;;;9.20;4.63;;;27.80;45.30;;;;;;5071359;28;20066;-56
2021/01/29 13:48:29;;;;;;;11.48;5.43;;;27.80;45.30;;;;;;5053830;28;20033;-57
2021/01/29 13:51:17;;;;;;;10.55;4.32;;;27.80;45.20;;;;;;5070818;28;20446;-58
2021/01/29 13:53:43;;;;;;;7.68;4.60;;;27.90;45.20;;;;;;5068505;28;20036;-58
2021/01/29 13:56:42;;;;;;;6.65;4.38;;;28.00;45.20;;;;;;5052585;28;20020;-56
2021/01/29 13:59:14;;;;;;;6.70;4.05;;;28.00;45.20;;;;;;5069542;28;20024;-58
2021/01/29 14:01:56;;;;;;;5.40;4.03;;;28.00;45.10;;;;;;5068429;28;20501;-58
2021/01/29 14:04:35;;;;;;;7.07;3.90;;;28.00;45.00;;;;;;5061785;28;20115;-58
2021/01/29 14:07:02;;;;;;;4.07;3.63;;;28.10;45.00;;;;;;5068937;28;20378;-63